Airfield :
LOGIN :

Register | Disclaimer

   EN    FR    IT 

 










Legend :    VFR   Marginal VFR   IFR   Intensive IFR   Very Intensive IFR
Visi :
Ceiling :
>= 8 km
>= 3000ft
5 to 8 km
1000 to 3000 ft
1500m to 5 km
500 to 1000 ft
800 to 1500m
200 to 500 ft
< 800m
< 200 ft
Symbols :   Thunderstorms  Fog  Heavy snow  Heavy precipitations  Wind > 20 kt
SIGMETs :     Misc.  Thunderstorms  Icing  Turbulence  Mountain Waves  Volcanic Ashes







- Airport Elevation : 302 ft
- IATA code : MAH


LEMH - Menorca

CURRENT METAR :
  • 141800Z 11011KT 070V130 9999 SCT008 BKN014 18/17 Q1022

EXPIRED METARs :
  • 141730Z 11010KT 070V130 9999 SCT008 BKN014 18/17 Q1022
  • 141700Z 10009KT 9999 SCT008 BKN012 18/17 Q1022
  • 141630Z 10009KT 080V140 9999 SCT009 BKN015 18/17 Q1022
  • 141600Z 10009KT 080V140 9999 SCT010 BKN015 18/16 Q1022
  • 141530Z 09009KT 060V120 9999 SCT010 BKN016 18/17 Q1022

TAF AMD TAF LEMH
Valid from the 14 at 17:00 until the 15 at 15:00 UTC


141700Z 1417/1515 10010KT 9999 SCT010 BKN012 TX21/1512Z TN14/1505Z
PROB40 1506/1512 4000 SHRA BKN020TCU
PROB30 1506/1512 2000 TSRA BKN020CB
No reported NOTAMs for that airfield.



MET'MAP, your aeronautical weather chart ! - Copyright ORBIFLY December 2007 - Disclaimer

ORBIFLY MET'MAP TEAM :

Programming & Development : Alexandra Zaïnal
Concept & Development : Baudouin d'Aumeries
Co-Development & Prog : Marc-Olivier Méhu
Technical & hardware support : Manuel Goepfert

Contact : metmap@orbifly.com




SOURCES & CREDITS :

   NOAA